Flight Track Log - Related Links

Times and Time Zones

All times are in EDT time to prevent confusion due to time zone crossing. See the NKS412 flight status page for this flight to view local times or setup timezone preferences in your user account.

Time Position Orientation Groundspeed Altitude Reporting Facility
EDT Latitude Longitude Course Direction KTS MPH feet Rate Location/Type
Wed 12:58:28 PM 33.6620 -78.9240 163° South 155 178 800  Level FlightAware ADS-B
Wed 12:58:43 PM 33.6500 -78.9190 161° South 165 190 1,300 1,467 Climbing FlightAware ADS-B
Wed 12:59:13 PM 33.6250 -78.9110 165° South 205 236 1,900 1,500 Climbing FlightAware ADS-B
Wed 12:59:43 PM 33.6000 -78.9280 210° Southwest 230 265 2,800 2,100 Climbing FlightAware ADS-B
Wed 12:59:53 PM 33.5970 -78.9420 256° West 237 273 3,300 3,150 Climbing FlightAware ADS-B
Wed 01:00:23 PM 33.6160 -78.9750 305° West 263 303 4,900 3,400 Climbing FlightAware ADS-B
Wed 01:00:53 PM 33.6490 -78.9900 339° North 267 307 6,700 3,600 Climbing FlightAware ADS-B
Wed 01:01:03 PM 33.6630 -78.9950 343° North 269 310 7,300 3,600 Climbing FlightAware ADS-B
Wed 01:01:33 PM 33.6980 -79.0080 343° North 268 308 9,100 3,600 Climbing FlightAware ADS-B
Wed 01:01:48 PM 33.7150 -79.0160 339° North 268 308 10,000 2,182 Climbing FlightAware ADS-B
Wed 01:02:28 PM 33.7650 -79.0400 338° Northwest 311 358 11,100 1,976 Climbing FlightAware ADS-B
Wed 01:03:13 PM 33.8370 -79.0750 338° Northwest 338 389 12,800 2,259 Climbing FlightAware ADS-B
Wed 01:03:53 PM 33.8970 -79.1040 338° Northwest 357 411 14,300 2,475 Climbing FlightAware ADS-B
Wed 01:04:33 PM 33.9590 -79.1340 338° Northwest 359 413 16,100 2,471 Climbing FlightAware ADS-B
Wed 01:05:18 PM 34.0290 -79.1680 338° Northwest 370 426 17,800 1,976 Climbing FlightAware ADS-B
Wed 01:05:58 PM 34.0910 -79.1980 338° Northwest 375 432 18,900 847 Climbing FlightAware ADS-B
Wed 01:06:43 PM 34.1650 -79.2340 338° Northwest 377 434 19,000 71 Climbing FlightAware ADS-B
Wed 01:07:23 PM 34.2300 -79.2660 338° Northwest 379 436 19,000  Level FlightAware ADS-B
Wed 01:08:03 PM 34.2980 -79.2990 338° Northwest 378 435 19,000  Level FlightAware ADS-B
Wed 01:08:48 PM 34.3700 -79.3350 338° Northwest 379 436 19,000  Level FlightAware ADS-B
Wed 01:09:28 PM 34.4320 -79.3650 338° Northwest 378 435 19,000 212 Level FlightAware ADS-B
Wed 01:10:13 PM 34.5080 -79.4020 338° Northwest 380 437 19,300 1,200 Climbing FlightAware ADS-B
Wed 01:10:53 PM 34.5690 -79.4320 338° Northwest 389 448 20,700 1,895 Climbing FlightAware ADS-B
Wed 01:11:48 PM 34.6680 -79.4800 338° Northwest 402 463 22,300 1,800 Climbing FlightAware ADS-B
Wed 01:12:33 PM 34.7450 -79.5180 338° Northwest 406 467 23,700 1,080 Climbing FlightAware ADS-B
Wed 01:13:28 PM 34.8310 -79.5620 337° Northwest 413 475 24,100 253 Climbing FlightAware ADS-B
Wed 01:14:08 PM 34.8910 -79.5930 337° Northwest 413 475 24,100  Level FlightAware ADS-B
Wed 01:14:48 PM 34.9510 -79.6240 337° Northwest 413 475 24,100  Level FlightAware ADS-B
Wed 01:15:28 PM 35.0110 -79.6550 337° Northwest 413 475 24,100  Level FlightAware ADS-B
Wed 01:16:18 PM 35.0850 -79.6940 337° Northwest 413 475 24,100  Level FlightAware ADS-B
Wed 01:16:48 PM 35.1300 -79.7170 337° Northwest 413 475 24,100 5,446 Level FlightAware ADS-B
Wed 01:17:23 PM 35.2689 -79.7844 337° Northwest 439 505 30,000 3,355 Climbing Washington Center
Wed 01:19:20 PM 35.5025 -79.9011 338° Northwest 450 518 32,600 1,288 Climbing Atlanta Center
Wed 01:20:20 PM 35.6339 -79.9633 339° North 450 518 33,800 700 Climbing Atlanta Center
Wed 01:21:20 PM 35.7506 -80.0214 338° Northwest 450 518 34,000 179 Climbing Atlanta Center
Wed 01:27:02 PM 36.4322 -80.3704 338° Northwest 459 528 35,000 167 Climbing FlightAware ADS-B
Wed 01:27:20 PM 36.4544 -80.3839 338° Northwest 455 524 35,000 37 Level Atlanta Center
Wed 01:29:45 PM 36.7469 -80.4239 354° North 460 529 35,100  Climbing Washington Center
Wed 01:30:45 PM 36.8694 -80.3897 13° North 460 529 35,000 -50 Descending Washington Center
Wed 01:31:46 PM 36.9958 -80.3561 12° North 460 529 35,000 -513 Level Washington Center
Wed 01:37:58 PM 37.7960 -80.1300 12° North 462 532 31,300 -626 Descending FlightAware ADS-B
Wed 01:38:38 PM 37.8770 -80.1070 13° North 449 517 30,700 -900 Descending FlightAware ADS-B
Wed 01:39:18 PM 37.9570 -80.0850 12° North 440 506 30,100 -975 Descending FlightAware ADS-B
Wed 01:39:58 PM 38.0370 -80.0620 13° North 437 503 29,400 -1,200 Descending FlightAware ADS-B
Wed 01:40:43 PM 38.1240 -80.0380 12° North 425 489 28,400 -1,533 Descending FlightAware ADS-B
Wed 01:41:28 PM 38.2080 -80.0140 13° North 418 481 27,100 -1,765 Descending FlightAware ADS-B
Wed 01:42:08 PM 38.2850 -79.9920 13° North 407 468 25,900 -1,800 Descending FlightAware ADS-B
Wed 01:42:48 PM 38.3590 -79.9710 13° North 396 456 24,700 -1,341 Descending FlightAware ADS-B
Wed 01:43:33 PM 38.4340 -79.9490 13° North 395 455 24,000 -494 Descending FlightAware ADS-B
Wed 01:44:13 PM 38.5070 -79.9280 13° North 398 458 24,000  Level FlightAware ADS-B
Wed 01:45:08 PM 38.6010 -79.9020 12° North 396 456 24,000  Level FlightAware ADS-B
Wed 01:45:48 PM 38.6620 -79.8850 12° North 396 456 24,000 -212 Level FlightAware ADS-B
Wed 01:46:33 PM 38.7560 -79.8560 14° North 386 444 23,700 -695 Descending FlightAware ADS-B
Wed 01:47:23 PM 38.8370 -79.8330 12° North 382 440 22,900 -533 Descending FlightAware ADS-B
Wed 01:48:03 PM 38.8960 -79.8170 12° North 382 440 22,900 -991 Level FlightAware ADS-B
Wed 01:49:18 PM 39.0310 -79.7770 13° North 377 434 21,000 -991 Descending FlightAware ADS-B
Wed 01:49:58 PM 39.0940 -79.7580 13° North 373 429 21,000  Level FlightAware ADS-B
Wed 01:51:03 PM 39.2140 -79.7230 13° North 373 429 21,000  Level FlightAware ADS-B
Wed 01:51:43 PM 39.2820 -79.7030 13° North 378 435 21,000  Level FlightAware ADS-B
Wed 01:52:33 PM 39.3670 -79.6780 13° North 377 434 21,000 -189 Level FlightAware ADS-B
Wed 01:53:18 PM 39.4460 -79.6550 13° North 377 434 20,700 -1,059 Descending FlightAware ADS-B
Wed 01:53:58 PM 39.5100 -79.6360 13° North 371 427 19,500 -2,100 Descending FlightAware ADS-B
Wed 01:54:38 PM 39.5810 -79.6150 13° North 370 426 17,900 -2,175 Descending FlightAware ADS-B
Wed 01:55:18 PM 39.6460 -79.5950 13° North 363 418 16,600 -1,765 Descending FlightAware ADS-B
Wed 01:56:03 PM 39.7180 -79.5740 13° North 348 400 15,400 -1,694 Descending FlightAware ADS-B
Wed 01:56:43 PM 39.7800 -79.5550 13° North 336 387 14,200 -2,047 Descending FlightAware ADS-B
Wed 01:57:28 PM 39.8490 -79.5350 13° North 340 391 12,500 -2,047 Descending FlightAware ADS-B
Wed 01:58:08 PM 39.9100 -79.5170 13° North 333 383 11,300 -1,412 Descending FlightAware ADS-B
Wed 01:58:53 PM 39.9750 -79.4970 13° North 311 358 10,500 -918 Descending FlightAware ADS-B
Wed 01:59:33 PM 40.0290 -79.4810 13° North 285 328 10,000 -1,292 Descending FlightAware ADS-B
Wed 01:59:58 PM 40.0610 -79.4710 13° North 278 320 9,100 -2,182 Descending FlightAware ADS-B
Wed 02:00:28 PM 40.1000 -79.4590 13° North 288 331 8,000 -2,000 Descending FlightAware ADS-B
Wed 02:00:43 PM 40.1170 -79.4500 22° Northeast 302 348 7,600 -1,600 Descending FlightAware ADS-B
Wed 02:00:58 PM 40.1340 -79.4290 43° Northeast 309 356 7,200 -750 Descending FlightAware ADS-B
Wed 02:01:23 PM 40.1570 -79.3960 48° Northeast 307 353 7,100 -109 Descending FlightAware ADS-B
Wed 02:01:53 PM 40.1850 -79.3540 49° Northeast 305 351 7,100 -109 Level FlightAware ADS-B
Wed 02:02:18 PM 40.2100 -79.3200 46° Northeast 303 349 7,000 -600 Descending FlightAware ADS-B
Wed 02:02:33 PM 40.2230 -79.3010 48° Northeast 293 337 6,700 -933 Descending FlightAware ADS-B
Wed 02:03:03 PM 40.2480 -79.2640 48° Northeast 272 313 6,300 -873 Descending FlightAware ADS-B
Wed 02:03:28 PM 40.2700 -79.2320 48° Northeast 263 303 5,900 -873 Descending FlightAware ADS-B
Wed 02:03:58 PM 40.2960 -79.1970 46° Northeast 258 297 5,500 -764 Descending FlightAware ADS-B
Wed 02:04:23 PM 40.3160 -79.1710 45° Northeast 248 285 5,200 -750 Descending FlightAware ADS-B
Wed 02:04:38 PM 40.3290 -79.1590 35° Northeast 232 267 5,000 -480 Descending FlightAware ADS-B
Wed 02:04:48 PM 40.3380 -79.1570 10° North 215 247 5,000  Level FlightAware ADS-B
Wed 02:05:13 PM 40.3600 -79.1560 North 215 247 5,000 -300 Level FlightAware ADS-B
Wed 02:05:48 PM 40.3800 -79.1960 303° West 181 208 4,700 -923 Descending FlightAware ADS-B
Wed 02:06:18 PM 40.3940 -79.2210 306° West 162 186 4,000 -600 Descending FlightAware ADS-B
Wed 02:06:58 PM 40.3860 -79.2580 254° West 162 186 4,000 -171 Level FlightAware ADS-B
Wed 02:07:28 PM 40.3700 -79.2790 225° Southwest 163 188 3,800 -533 Descending FlightAware ADS-B
Wed 02:07:43 PM 40.3630 -79.2900 230° Southwest 161 185 3,600 -900 Descending FlightAware ADS-B
Wed 02:08:08 PM 40.3500 -79.3070 225° Southwest 161 185 3,200 -900 Descending FlightAware ADS-B
Wed 02:08:23 PM 40.3420 -79.3180 226° Southwest 167 192 3,000 -800 Descending FlightAware ADS-B
Wed 02:08:53 PM 40.3270 -79.3380 225° Southwest 146 168 2,600 -764 Descending FlightAware ADS-B
Wed 02:09:18 PM 40.3170 -79.3520 227° Southwest 129 148 2,300 -750 Descending FlightAware ADS-B
Wed 02:09:33 PM 40.3110 -79.3600 225° Southwest 132 152 2,100 -436 Descending FlightAware ADS-B
Wed 02:10:13 PM 40.2940 -79.3820 225° Southwest 131 151 1,900 -300 Descending FlightAware ADS-B
Wed 02:13:00 PM 40.2667 -79.4000 254° West  Level FlightAware Approximate
Wed 02:14:00 PM 40.2746 -79.4068 254° West  Level Estimated
Wed 02:15:00 PM 40.2746 -79.4068 254° West  Level Estimated
Wed 02:16:00 PM 40.2746 -79.4068 254° West  Level Estimated
Wed 02:17:00 PM 40.2746 -79.4068 254° West  Level Estimated
Wed 02:18:00 PM 40.2746 -79.4068 254° West  Level Estimated
Wed 02:19:00 PM 40.2746 -79.4068 254° West  Level Estimated

Login

Don't have an account? Register now (free) for customized features, flight alerts, and more!